Terminal Aerodrome Forecast
Issued by NWS Cleveland, OH

Home | Current Version | Previous Version | Graphics & Text | Print | Product List | Glossary On
Versions: 1 2 3 4 5 6 7 8 9 10 11 12 13 14 15 16 17 18
000
FTUS41 KCLE 261506 AAB
TAFYNG
TAF AMD
KYNG 261506Z 2615/2712 29010KT P6SM SCT008 OVC015
      TEMPO 2615/2618 BKN008
     FM262100 28008KT P6SM BKN035
     FM270200 13005KT P6SM OVC050=

USA.gov is the U.S. government's official web portal to all federal, state and local government web resources and services.